Terminal Aerodrome Forecast
Issued by NWS

Home | Current Version | Previous Version | Text Only | Print | Product List | Glossary On
Versions: 1 2 3 4 5 6 7 8 9 10 11 12 13 14 15 16 17 18
000
FTUS43 KIND 241400 AAA
TAFLAF
TAF AMD
KLAF 241413Z 2414/2512 13012G21KT P6SM SCT120 BKN200
     FM241600 15015G23KT P6SM BKN150
     FM250200 12013KT P6SM OVC100
     FM250500 13012KT 4SM -SHRA BR SCT020 OVC040
     FM250900 25014G22KT 3SM -SHRA BR OVC012=

USA.gov is the U.S. government's official web portal to all federal, state and local government web resources and services.